Time;durP1;ratioP1;P1;durP2;ratioP2;P2;SDS_P1;SDS_P2;PMS_P1;PMS_P2;Temp;Humidity;BMP_temperature;BMP_pressure;BME280_temperature;BME280_humidity;BME280_pressure;Samples;Min_cycle;Max_cycle;Signal;HPM_P1;HPM_P2
2021/12/09 00:02:25;;;;;;;37.13;17.63;;;-1.50;96.30;;;;;;4896158;29;20460;-79
2021/12/09 00:04:54;;;;;;;34.57;19.30;;;-1.50;96.30;;;;;;4895371;29;20456;-79
2021/12/09 00:07:20;;;;;;;30.33;18.47;;;-1.50;96.30;;;;;;4895844;29;20472;-79
2021/12/09 00:09:45;;;;;;;33.90;18.40;;;-1.50;96.30;;;;;;4897876;29;20425;-79
2021/12/09 00:19:57;;;;;;;35.47;18.90;;;-1.50;96.30;;;;;;5282331;23;20500;-78
2021/12/09 00:22:22;;;;;;;38.93;20.63;;;-1.50;96.30;;;;;;4876890;29;20443;-77
2021/12/09 00:24:48;;;;;;;31.93;19.40;;;-1.50;96.30;;;;;;4878140;29;20245;-78
2021/12/09 00:27:14;;;;;;;38.43;19.97;;;-1.50;96.30;;;;;;4877878;29;20237;-79
2021/12/09 00:29:39;;;;;;;34.00;19.90;;;-1.40;96.30;;;;;;4892100;29;20169;-78
2021/12/09 00:32:05;;;;;;;35.13;19.03;;;-1.50;96.30;;;;;;4896693;29;20224;-78
2021/12/09 00:34:34;;;;;;;34.03;19.10;;;-1.50;96.30;;;;;;4897043;29;20546;-78
2021/12/09 00:37:14;;;;;;;28.77;19.47;;;-1.50;96.30;;;;;;4895352;29;20791;-77
2021/12/09 00:39:41;;;;;;;30.73;18.43;;;-1.50;96.30;;;;;;4895783;29;20869;-79
2021/12/09 00:42:07;;;;;;;31.30;18.10;;;-1.50;96.30;;;;;;4895445;29;20592;-78
2021/12/09 00:44:33;;;;;;;29.90;19.13;;;-1.50;96.30;;;;;;4895433;29;20634;-78
2021/12/09 00:46:58;;;;;;;31.80;18.30;;;-1.60;96.30;;;;;;4896423;29;20882;-78
2021/12/09 00:49:24;;;;;;;30.30;18.27;;;-1.50;96.30;;;;;;4896692;29;20185;-79
2021/12/09 00:51:50;;;;;;;39.80;16.43;;;-1.50;96.30;;;;;;4895322;29;20197;-78
2021/12/09 00:54:16;;;;;;;34.37;18.53;;;-1.40;96.30;;;;;;4895369;29;20275;-77
2021/12/09 00:56:41;;;;;;;31.80;17.90;;;-1.40;96.30;;;;;;4895072;29;20536;-78
2021/12/09 00:59:07;;;;;;;31.53;18.50;;;-1.30;96.30;;;;;;4895343;29;20188;-79
2021/12/09 05:01:25;;;;;;;31.20;18.37;;;-1.00;96.30;;;;;;5397303;23;20493;-78
2021/12/09 05:03:51;;;;;;;30.07;18.43;;;-1.00;96.30;;;;;;4881404;29;20548;-78
2021/12/09 05:06:18;;;;;;;30.60;17.20;;;-1.00;96.30;;;;;;4881201;29;20170;-78
2021/12/09 05:08:48;;;;;;;28.17;17.07;;;-1.10;96.30;;;;;;4880193;29;20421;-78
2021/12/09 05:11:30;;;;;;;37.10;18.47;;;-1.10;96.30;;;;;;4881279;29;20438;-78
2021/12/09 05:13:57;;;;;;;35.13;18.27;;;-1.10;96.30;;;;;;4882572;29;20414;-79
2021/12/09 05:16:23;;;;;;;33.00;17.73;;;-1.10;96.30;;;;;;4880959;29;20493;-79
2021/12/09 05:18:50;;;;;;;33.83;19.00;;;-1.10;96.30;;;;;;4882771;29;20445;-79
2021/12/09 05:34:23;;;;;;;36.30;19.67;;;-1.10;96.30;;;;;;4881179;29;20429;-78
2021/12/09 05:36:48;;;;;;;71.40;34.67;;;-1.00;96.30;;;;;;4879177;29;20418;-78
2021/12/09 05:39:15;;;;;;;49.07;28.20;;;-1.00;96.30;;;;;;4876377;29;20674;-78
2021/12/09 05:41:41;;;;;;;56.97;30.10;;;-1.10;96.30;;;;;;4879771;29;20240;-77
2021/12/09 05:44:08;;;;;;;40.73;22.27;;;-1.00;96.30;;;;;;4879908;29;20894;-77
2021/12/09 05:46:36;;;;;;;38.40;21.77;;;-1.00;96.30;;;;;;4879900;29;20426;-78
2021/12/09 05:49:02;;;;;;;32.83;17.93;;;-1.00;96.30;;;;;;4879836;29;20430;-78
2021/12/09 07:23:35;;;;;;;22.20;12.50;;;-0.90;96.30;;;;;;6008745;23;20430;-78
2021/12/09 07:26:01;;;;;;;23.10;13.93;;;-0.90;96.30;;;;;;4911551;29;20439;-77
2021/12/09 07:28:27;;;;;;;23.47;15.13;;;-0.90;96.30;;;;;;4913531;29;20417;-76
2021/12/09 07:30:54;;;;;;;23.70;14.80;;;-0.90;96.30;;;;;;4893763;29;20801;-75
2021/12/09 07:33:19;;;;;;;25.70;14.83;;;-0.80;96.30;;;;;;4896435;29;20184;-77
2021/12/09 07:35:45;;;;;;;32.20;18.30;;;-0.80;96.30;;;;;;4876584;29;20438;-77
2021/12/09 07:38:11;;;;;;;30.17;16.13;;;-0.80;96.30;;;;;;4869194;29;20213;-77
2021/12/09 07:40:38;;;;;;;27.50;15.17;;;-0.90;96.30;;;;;;4875009;29;20661;-76
2021/12/09 07:43:04;;;;;;;25.60;15.30;;;-0.90;96.30;;;;;;4874584;29;20791;-76
2021/12/09 07:45:30;;;;;;;29.10;16.50;;;-0.90;96.30;;;;;;4874724;29;20505;-76
2021/12/09 07:47:56;;;;;;;33.23;16.77;;;-0.90;96.30;;;;;;4873736;29;20461;-77
2021/12/09 07:50:24;;;;;;;35.63;16.60;;;-0.90;96.30;;;;;;4874754;29;20613;-76
2021/12/09 07:52:51;;;;;;;25.70;16.93;;;-0.90;96.30;;;;;;4875672;29;20421;-76
2021/12/09 07:55:18;;;;;;;31.60;17.97;;;-0.90;96.30;;;;;;4874428;29;20501;-76
2021/12/09 07:57:44;;;;;;;37.10;18.33;;;-0.80;96.30;;;;;;4873462;29;20462;-77
2021/12/09 08:00:14;;;;;;;33.03;18.27;;;-0.90;96.30;;;;;;4874864;29;20449;-77
2021/12/09 08:02:40;;;;;;;26.27;16.20;;;-0.80;96.30;;;;;;4875596;29;20922;-76
2021/12/09 08:05:07;;;;;;;27.43;16.57;;;-0.70;96.30;;;;;;4874485;29;20457;-77
2021/12/09 08:07:32;;;;;;;27.23;15.97;;;-0.70;96.30;;;;;;4873690;29;20465;-76
2021/12/09 08:09:58;;;;;;;25.40;15.20;;;-0.60;96.30;;;;;;4874679;29;20414;-78
2021/12/09 08:12:23;;;;;;;29.43;17.50;;;-0.60;96.30;;;;;;4875098;29;20192;-77
2021/12/09 08:14:49;;;;;;;26.30;17.00;;;-0.50;96.30;;;;;;4873950;29;20263;-77
2021/12/09 08:17:44;;;;;;;25.80;16.40;;;-0.50;96.30;;;;;;4873551;29;20773;-76
2021/12/09 08:20:14;;;;;;;33.57;17.83;;;-0.60;96.30;;;;;;4874465;29;20906;-76
2021/12/09 08:22:41;;;;;;;37.73;17.93;;;-0.50;96.30;;;;;;4874798;29;20478;-77
2021/12/09 08:25:08;;;;;;;34.90;19.43;;;-0.60;96.30;;;;;;4874760;29;20877;-76
2021/12/09 08:27:35;;;;;;;27.43;18.03;;;-0.60;96.30;;;;;;4877292;29;20474;-77
2021/12/09 08:30:05;;;;;;;33.57;19.27;;;-0.70;96.30;;;;;;4876080;29;20438;-78
2021/12/09 08:32:31;;;;;;;33.57;17.47;;;-0.70;96.30;;;;;;4874711;29;20494;-77
2021/12/09 08:34:57;;;;;;;29.63;18.07;;;-0.60;96.30;;;;;;4877980;29;20484;-76
2021/12/09 08:37:22;;;;;;;27.47;17.87;;;-0.60;96.30;;;;;;4878519;29;20453;-77
2021/12/09 08:39:48;;;;;;;31.63;18.03;;;-0.60;96.30;;;;;;4875242;29;20442;-78
2021/12/09 08:42:14;;;;;;;35.10;17.70;;;-0.60;96.30;;;;;;4879210;29;20199;-76
2021/12/09 08:44:40;;;;;;;28.73;16.10;;;-0.50;96.30;;;;;;4878185;29;20288;-76
2021/12/09 08:47:06;;;;;;;29.23;16.23;;;-0.40;96.30;;;;;;4888008;29;20435;-76
2021/12/09 08:49:32;;;;;;;30.23;16.87;;;-0.40;96.30;;;;;;4895514;29;21030;-77
2021/12/09 08:51:58;;;;;;;31.77;17.57;;;-0.50;96.30;;;;;;4881821;29;20425;-77
2021/12/09 08:54:23;;;;;;;29.60;18.13;;;-0.40;96.30;;;;;;4870984;29;20568;-77
2021/12/09 08:56:51;;;;;;;29.73;17.20;;;-0.40;96.30;;;;;;4862660;29;20553;-77
2021/12/09 08:59:21;;;;;;;33.67;18.73;;;-0.30;96.30;;;;;;4863034;29;20174;-77
2021/12/09 09:01:47;;;;;;;36.10;18.10;;;-0.20;96.30;;;;;;4862034;29;20430;-77
2021/12/09 09:04:12;;;;;;;33.63;20.40;;;-0.30;96.30;;;;;;4862883;29;21045;-77
2021/12/09 09:06:48;;;;;;;29.23;18.50;;;-0.40;96.30;;;;;;4862443;29;20253;-77
2021/12/09 09:09:13;;;;;;;35.40;19.07;;;-0.40;96.30;;;;;;4863298;29;20169;-78
2021/12/09 09:11:39;;;;;;;30.70;18.53;;;-0.30;96.30;;;;;;4871796;29;20418;-76
2021/12/09 09:14:04;;;;;;;27.80;18.37;;;-0.30;96.30;;;;;;4881354;29;20284;-77
2021/12/09 09:16:30;;;;;;;32.93;18.37;;;-0.30;96.30;;;;;;4880941;29;20186;-78
2021/12/09 09:18:57;;;;;;;33.13;18.40;;;-0.20;96.30;;;;;;4880296;29;20185;-78
2021/12/09 09:21:23;;;;;;;32.33;18.20;;;-0.20;96.30;;;;;;4881221;29;20181;-77
2021/12/09 09:23:48;;;;;;;25.80;15.60;;;-0.10;96.30;;;;;;4880965;29;20775;-77
2021/12/09 09:26:14;;;;;;;32.00;15.80;;;-0.10;96.30;;;;;;4879373;29;20181;-79
2021/12/09 09:28:40;;;;;;;24.40;14.63;;;-0.10;96.30;;;;;;4881256;29;20548;-78
2021/12/09 09:31:07;;;;;;;24.17;13.50;;;-0.10;96.30;;;;;;4881144;29;20449;-78
2021/12/09 09:33:33;;;;;;;23.10;12.27;;;-0.10;96.30;;;;;;4879766;29;20205;-76
2021/12/09 09:36:00;;;;;;;21.13;13.77;;;0.00;96.30;;;;;;4877576;29;20993;-78
2021/12/09 09:38:26;;;;;;;23.97;13.47;;;0.00;96.30;;;;;;4877087;29;21685;-77
2021/12/09 09:41:08;;;;;;;22.70;13.80;;;0.10;96.30;;;;;;4879366;29;20434;-78
2021/12/09 09:43:54;;;;;;;21.40;11.80;;;0.20;96.30;;;;;;4876241;29;20512;-78
2021/12/09 09:46:26;;;;;;;24.83;15.47;;;0.30;96.30;;;;;;4883192;29;20481;-79
2021/12/09 09:48:54;;;;;;;23.10;14.47;;;0.20;96.30;;;;;;4880786;29;20921;-78
2021/12/09 09:51:22;;;;;;;17.20;11.13;;;0.30;96.30;;;;;;4877989;29;20450;-79
2021/12/09 09:53:48;;;;;;;20.80;13.57;;;0.30;96.30;;;;;;4861169;29;20506;-78
2021/12/09 09:56:18;;;;;;;19.03;12.90;;;0.40;96.30;;;;;;4862305;29;20434;-79
2021/12/09 09:58:48;;;;;;;18.67;13.00;;;0.50;96.30;;;;;;4861716;29;20408;-79
2021/12/09 10:01:15;;;;;;;23.97;13.43;;;0.50;96.30;;;;;;4861471;29;20486;-79
2021/12/09 10:03:46;;;;;;;20.50;12.07;;;0.50;96.30;;;;;;4861652;29;20423;-79
2021/12/09 10:06:14;;;;;;;26.40;14.07;;;0.50;96.30;;;;;;4861194;29;20501;-79
2021/12/09 10:08:40;;;;;;;20.87;12.90;;;0.70;96.30;;;;;;4866081;29;20791;-79
2021/12/09 10:11:06;;;;;;;24.50;13.10;;;0.60;96.30;;;;;;4880079;29;20915;-78
2021/12/09 10:13:35;;;;;;;24.90;13.60;;;0.60;96.30;;;;;;4864152;29;20187;-78
2021/12/09 10:16:05;;;;;;;21.40;12.30;;;0.60;96.30;;;;;;4862155;29;20417;-79
2021/12/09 10:18:42;;;;;;;22.67;14.20;;;0.60;96.30;;;;;;4863009;29;20423;-80
2021/12/09 10:21:09;;;;;;;21.77;13.47;;;0.70;96.30;;;;;;4869778;29;20500;-80
2021/12/09 10:23:42;;;;;;;23.63;13.20;;;0.70;96.30;;;;;;4881552;29;20933;-79
2021/12/09 10:26:40;;;;;;;25.10;14.37;;;0.80;96.30;;;;;;4879941;29;20834;-79
2021/12/09 10:29:18;;;;;;;21.17;13.13;;;0.80;96.30;;;;;;4881754;29;20398;-80
2021/12/09 10:31:58;;;;;;;18.03;10.70;;;0.90;96.30;;;;;;4880482;29;20418;-80
2021/12/09 10:34:35;;;;;;;24.17;12.23;;;0.80;96.30;;;;;;4874160;29;20450;-80
2021/12/09 10:37:12;;;;;;;22.10;12.10;;;0.80;96.30;;;;;;4864019;29;20431;-79
2021/12/09 10:39:54;;;;;;;27.97;13.80;;;0.70;96.30;;;;;;4861686;29;20410;-79
2021/12/09 10:42:24;;;;;;;24.83;14.63;;;0.60;96.30;;;;;;4860538;29;20495;-79
2021/12/09 10:44:53;;;;;;;18.80;11.60;;;0.60;96.30;;;;;;4868210;29;21005;-78
2021/12/09 10:47:47;;;;;;;28.13;13.67;;;0.60;96.30;;;;;;4876663;29;20422;-78
2021/12/09 10:50:22;;;;;;;27.63;13.33;;;0.60;96.30;;;;;;4880849;29;20434;-78
2021/12/09 10:52:55;;;;;;;22.83;14.10;;;0.60;96.30;;;;;;4878426;29;20422;-78
2021/12/09 10:55:29;;;;;;;27.07;15.10;;;0.60;96.30;;;;;;4883291;29;20526;-78
2021/12/09 10:58:14;;;;;;;31.03;15.30;;;0.50;96.30;;;;;;4893010;29;20515;-77
2021/12/09 11:00:41;;;;;;;26.33;13.93;;;0.50;96.30;;;;;;4874296;29;20418;-79
2021/12/09 11:03:40;;;;;;;21.27;14.20;;;0.50;96.30;;;;;;4879629;29;20414;-78
2021/12/09 11:06:11;;;;;;;26.60;15.40;;;0.50;96.30;;;;;;4877721;29;20422;-77
2021/12/09 11:08:44;;;;;;;23.13;14.47;;;0.50;96.30;;;;;;4878409;29;20941;-78
2021/12/09 11:11:30;;;;;;;25.93;14.43;;;0.60;96.30;;;;;;4885003;29;20449;-79
2021/12/09 11:14:00;;;;;;;21.30;14.27;;;0.70;96.30;;;;;;4894171;29;20957;-79
2021/12/09 11:16:37;;;;;;;23.93;12.97;;;0.80;96.30;;;;;;4870874;29;20501;-79
2021/12/09 11:19:24;;;;;;;18.73;10.50;;;0.80;96.30;;;;;;4880703;29;20428;-79
2021/12/09 11:21:57;;;;;;;18.47;11.30;;;0.90;96.30;;;;;;4877039;29;20418;-78
2021/12/09 11:24:27;;;;;;;17.30;10.70;;;1.10;96.30;;;;;;4877682;29;21008;-78
2021/12/09 11:26:57;;;;;;;17.50;9.50;;;1.10;96.30;;;;;;4877509;29;20421;-78
2021/12/09 11:29:35;;;;;;;13.40;9.20;;;1.10;96.30;;;;;;4877846;29;20457;-78
2021/12/09 11:35:01;;;;;;;17.07;10.03;;;1.10;96.30;;;;;;4876309;29;20460;-78
2021/12/09 11:40:07;;;;;;;17.30;9.83;;;0.90;96.30;;;;;;4866427;29;20811;-78
2021/12/09 11:42:45;;;;;;;13.93;9.20;;;0.80;96.30;;;;;;4859141;29;20420;-77
2021/12/09 11:45:13;;;;;;;15.90;9.90;;;0.90;96.30;;;;;;4865209;29;20476;-77
2021/12/09 11:47:40;;;;;;;16.90;10.30;;;0.80;96.30;;;;;;4878153;29;20422;-77
2021/12/09 11:50:08;;;;;;;13.33;9.27;;;0.80;96.30;;;;;;4878593;29;20441;-77
2021/12/09 11:52:36;;;;;;;15.10;9.23;;;0.90;96.30;;;;;;4878737;29;20410;-78
2021/12/09 11:55:05;;;;;;;14.13;9.50;;;0.90;96.30;;;;;;4878528;29;20445;-78
2021/12/09 12:11:30;;;;;;;14.23;8.70;;;1.00;96.30;;;;;;4876265;29;20441;-76
2021/12/09 12:14:02;;;;;;;13.67;10.00;;;1.00;96.30;;;;;;4872056;29;20260;-76
2021/12/09 12:16:36;;;;;;;13.27;8.20;;;0.90;96.30;;;;;;4877738;29;20497;-76
2021/12/09 12:19:12;;;;;;;13.87;8.73;;;0.90;96.30;;;;;;4874766;29;20953;-76
2021/12/09 12:25:13;;;;;;;11.03;8.53;;;1.00;96.30;;;;;;4878194;29;20998;-76
2021/12/09 12:27:49;;;;;;;12.93;8.83;;;1.00;96.30;;;;;;4856249;29;20447;-77
2021/12/09 12:30:42;;;;;;;12.53;8.43;;;1.00;96.30;;;;;;4896237;29;20418;-77
2021/12/09 12:33:33;;;;;;;13.73;8.20;;;0.90;96.30;;;;;;4896862;29;20898;-76
2021/12/09 12:36:16;;;;;;;13.83;9.50;;;1.00;96.30;;;;;;4868725;29;20433;-77
2021/12/09 12:39:03;;;;;;;13.73;8.97;;;1.10;96.30;;;;;;4881053;29;20964;-76
2021/12/09 12:41:29;;;;;;;11.50;8.47;;;1.10;96.30;;;;;;4896729;29;20533;-76
2021/12/09 12:44:04;;;;;;;15.27;9.60;;;1.10;96.30;;;;;;4879849;29;21002;-77
2021/12/09 12:46:58;;;;;;;12.00;8.47;;;1.00;96.30;;;;;;4873077;29;20280;-77
2021/12/09 12:52:11;;;;;;;14.50;9.40;;;1.00;96.30;;;;;;4877957;29;20458;-77
2021/12/09 12:54:51;;;;;;;12.03;8.87;;;1.00;96.30;;;;;;4877994;29;20197;-77
2021/12/09 12:57:42;;;;;;;13.87;10.60;;;1.00;96.30;;;;;;4877803;29;20453;-77
2021/12/09 13:00:22;;;;;;;12.83;9.20;;;1.00;96.30;;;;;;4865994;29;20445;-77
2021/12/09 13:05:54;;;;;;;11.97;9.20;;;1.10;96.30;;;;;;4859822;29;20482;-75
2021/12/09 13:34:18;;;;;;;13.43;9.90;;;1.10;96.30;;;;;;5493424;23;20488;-77
2021/12/09 13:37:05;;;;;;;13.40;9.17;;;1.10;96.30;;;;;;4881101;29;20462;-76
2021/12/09 13:39:54;;;;;;;12.30;8.50;;;1.00;96.30;;;;;;4881192;29;20425;-77
2021/12/09 13:47:54;;;;;;;14.50;10.13;;;1.10;96.30;;;;;;4878488;29;20443;-75
2021/12/09 13:50:45;;;;;;;13.23;8.47;;;1.00;96.30;;;;;;4881129;29;20417;-76
2021/12/09 13:55:38;;;;;;;10.33;7.70;;;1.00;96.30;;;;;;4881791;29;20461;-77
2021/12/09 13:58:08;;;;;;;12.47;9.23;;;0.90;96.30;;;;;;4881623;29;20193;-77
2021/12/09 14:00:39;;;;;;;15.03;8.60;;;0.80;96.30;;;;;;4879753;29;20426;-77
2021/12/09 14:03:11;;;;;;;12.30;9.17;;;0.80;96.30;;;;;;4880823;29;20440;-77
2021/12/09 14:05:50;;;;;;;12.27;9.23;;;0.70;96.30;;;;;;4879201;29;20477;-77
2021/12/09 14:08:28;;;;;;;12.53;9.30;;;0.80;96.30;;;;;;4879656;29;20449;-77
2021/12/09 14:11:00;;;;;;;13.33;10.33;;;0.60;96.30;;;;;;4880759;29;20492;-78
2021/12/09 14:13:27;;;;;;;21.50;13.60;;;0.60;96.30;;;;;;4880692;29;20517;-77
2021/12/09 14:16:13;;;;;;;17.13;9.67;;;0.60;96.30;;;;;;4880325;29;20990;-77
2021/12/09 14:19:57;;;;;;;13.83;9.13;;;0.50;96.30;;;;;;4880547;29;20422;-79
2021/12/09 14:21:29;;;;;;;13.67;8.53;;;0.50;96.30;;;;;;4880000;29;20438;-78
2021/12/09 14:24:09;;;;;;;14.90;10.40;;;0.50;96.30;;;;;;4879387;29;20559;-78
2021/12/09 14:26:36;;;;;;;13.13;9.30;;;0.40;96.30;;;;;;4887907;29;20260;-78
2021/12/09 14:29:04;;;;;;;10.80;7.50;;;0.50;96.30;;;;;;4890405;29;20927;-77
2021/12/09 14:31:38;;;;;;;14.60;9.57;;;0.30;96.30;;;;;;4880356;29;20434;-77
2021/12/09 14:34:04;;;;;;;13.83;9.77;;;0.30;96.30;;;;;;4859850;29;20467;-77
2021/12/09 14:36:31;;;;;;;15.23;10.00;;;0.30;96.30;;;;;;4861360;29;20423;-77
2021/12/09 14:39:03;;;;;;;12.37;9.20;;;0.30;96.30;;;;;;4870683;29;20185;-78
2021/12/09 14:41:29;;;;;;;13.60;9.40;;;0.40;96.30;;;;;;4880322;29;20975;-77
2021/12/09 14:43:56;;;;;;;27.63;10.00;;;0.30;96.30;;;;;;4885271;29;20444;-77
2021/12/09 14:46:26;;;;;;;15.60;10.97;;;0.30;96.30;;;;;;4898702;29;20992;-77
2021/12/09 14:48:54;;;;;;;48.30;11.60;;;0.30;96.30;;;;;;4899275;29;20425;-77
2021/12/09 14:51:28;;;;;;;18.23;10.30;;;0.30;96.30;;;;;;4898667;29;20912;-77
2021/12/09 14:54:07;;;;;;;15.60;9.43;;;0.20;96.30;;;;;;4889734;29;20449;-77
2021/12/09 14:56:41;;;;;;;15.87;11.43;;;0.20;96.30;;;;;;4889639;29;20425;-77
2021/12/09 14:59:18;;;;;;;10.40;7.60;;;0.10;96.30;;;;;;4897281;29;20441;-77
2021/12/09 15:01:46;;;;;;;11.20;8.43;;;0.10;96.30;;;;;;4898645;29;20489;-77
2021/12/09 15:04:16;;;;;;;8.50;7.27;;;0.10;96.30;;;;;;4881425;29;20469;-77
2021/12/09 15:06:51;;;;;;;12.40;8.83;;;0.10;96.30;;;;;;4878052;29;20474;-77
2021/12/09 15:09:18;;;;;;;10.07;7.87;;;0.10;96.30;;;;;;4879689;29;20429;-77
2021/12/09 15:11:49;;;;;;;14.07;9.23;;;0.00;96.30;;;;;;4885320;29;20447;-77
2021/12/09 15:14:22;;;;;;;10.37;7.87;;;0.00;96.30;;;;;;4879263;29;20472;-77
2021/12/09 15:17:14;;;;;;;11.10;9.60;;;0.00;96.30;;;;;;4879226;29;20433;-77
2021/12/09 15:19:43;;;;;;;13.20;8.40;;;0.00;96.30;;;;;;4868959;29;20431;-76
2021/12/09 15:22:14;;;;;;;11.30;8.27;;;0.00;96.30;;;;;;4860617;29;20426;-77
2021/12/09 15:24:59;;;;;;;10.93;8.43;;;0.00;96.30;;;;;;4859408;29;20478;-77
2021/12/09 15:27:51;;;;;;;10.10;7.43;;;0.00;96.30;;;;;;4859253;29;20430;-77
2021/12/09 15:30:19;;;;;;;12.07;8.50;;;0.00;96.30;;;;;;4869174;29;20525;-77
2021/12/09 15:33:00;;;;;;;12.10;8.17;;;0.00;96.30;;;;;;4879131;29;20508;-77
2021/12/09 15:35:28;;;;;;;13.23;8.87;;;0.00;96.30;;;;;;4878834;29;20472;-77
2021/12/09 15:37:54;;;;;;;10.47;7.97;;;0.00;96.30;;;;;;4876201;29;20494;-76
2021/12/09 15:40:21;;;;;;;10.97;8.30;;;0.00;96.30;;;;;;4886934;29;20429;-77
2021/12/09 15:42:47;;;;;;;10.57;8.43;;;0.00;96.30;;;;;;4897663;29;20425;-76
2021/12/09 15:45:13;;;;;;;11.33;8.33;;;0.00;96.30;;;;;;4892807;29;21014;-76
2021/12/09 15:47:38;;;;;;;14.40;9.23;;;-0.10;96.30;;;;;;4878883;29;20213;-76
2021/12/09 15:50:10;;;;;;;13.53;8.67;;;0.00;96.30;;;;;;4878960;29;20169;-76
2021/12/09 15:52:54;;;;;;;10.70;8.23;;;0.00;96.30;;;;;;4879100;29;20208;-77
2021/12/09 15:55:23;;;;;;;13.17;8.97;;;-0.10;96.30;;;;;;4877399;29;20446;-76
2021/12/09 15:57:52;;;;;;;11.67;8.13;;;0.00;96.30;;;;;;4896443;29;20944;-76
2021/12/09 16:00:27;;;;;;;10.57;8.30;;;0.00;96.30;;;;;;4897498;29;20430;-76
2021/12/09 16:02:53;;;;;;;10.40;6.83;;;0.00;96.30;;;;;;4896216;29;20436;-76
2021/12/09 16:05:22;;;;;;;10.20;8.17;;;0.00;96.30;;;;;;4897562;29;20473;-76
2021/12/09 16:07:48;;;;;;;8.93;7.23;;;-0.10;96.30;;;;;;4897588;29;20432;-76
2021/12/09 16:10:15;;;;;;;7.80;6.40;;;-0.10;96.30;;;;;;4897435;29;20796;-76
2021/12/09 16:12:40;;;;;;;8.40;7.27;;;-0.10;96.30;;;;;;4896053;29;20255;-77
2021/12/09 16:15:12;;;;;;;9.80;8.30;;;-0.10;96.30;;;;;;4889341;29;20490;-77
2021/12/09 16:17:38;;;;;;;12.40;6.93;;;-0.10;96.30;;;;;;4876645;29;20186;-77
2021/12/09 16:20:08;;;;;;;10.03;6.90;;;0.00;96.30;;;;;;4876689;29;20855;-76
2021/12/09 16:22:35;;;;;;;9.93;7.43;;;0.00;96.30;;;;;;4878663;29;20186;-77
2021/12/09 16:25:08;;;;;;;7.53;6.50;;;0.00;96.30;;;;;;4878231;29;20545;-76
2021/12/09 16:27:37;;;;;;;8.90;5.57;;;0.00;96.30;;;;;;4878166;29;20430;-76
2021/12/09 16:30:09;;;;;;;8.40;6.90;;;0.00;96.30;;;;;;4895216;29;20505;-76
2021/12/09 16:32:37;;;;;;;9.47;6.83;;;-0.10;96.30;;;;;;4896996;29;20425;-76
2021/12/09 16:35:07;;;;;;;9.50;6.23;;;0.00;96.30;;;;;;4896958;29;20457;-77
2021/12/09 16:37:38;;;;;;;8.10;6.50;;;0.00;96.30;;;;;;4895602;29;20520;-78
2021/12/09 16:40:17;;;;;;;17.03;12.03;;;0.00;96.30;;;;;;4897012;29;20405;-77
2021/12/09 16:42:44;;;;;;;10.70;8.00;;;0.00;96.30;;;;;;4895267;29;20536;-77
2021/12/09 16:45:11;;;;;;;8.93;7.10;;;0.00;96.30;;;;;;4896836;29;20461;-78
2021/12/09 16:47:36;;;;;;;8.00;7.00;;;0.00;96.30;;;;;;4890763;29;20434;-78
2021/12/09 16:50:04;;;;;;;9.47;6.50;;;0.00;96.30;;;;;;4881820;29;20793;-77
2021/12/09 16:52:29;;;;;;;8.60;6.57;;;0.00;96.30;;;;;;4880765;29;20325;-77
2021/12/09 16:54:57;;;;;;;8.77;6.27;;;0.00;96.30;;;;;;4880706;29;20532;-77
2021/12/09 16:57:42;;;;;;;11.73;7.20;;;0.00;96.30;;;;;;4882052;29;20185;-77
2021/12/09 17:00:12;;;;;;;8.43;7.03;;;0.00;96.30;;;;;;4877908;29;20423;-78
2021/12/09 17:02:38;;;;;;;9.30;6.73;;;0.00;96.30;;;;;;4863709;29;20426;-77
2021/12/09 17:05:04;;;;;;;9.00;6.83;;;0.00;96.30;;;;;;4861526;29;20462;-76
2021/12/09 17:07:31;;;;;;;9.07;7.07;;;0.00;96.30;;;;;;4862665;29;20423;-76
2021/12/09 17:09:56;;;;;;;10.60;8.77;;;0.00;96.30;;;;;;4877497;29;20493;-76
2021/12/09 17:12:22;;;;;;;14.10;10.37;;;0.00;96.30;;;;;;4871026;29;20970;-76
2021/12/09 17:14:47;;;;;;;12.03;8.37;;;0.00;96.30;;;;;;4879156;29;20209;-75
2021/12/09 17:17:13;;;;;;;12.90;9.87;;;0.00;96.30;;;;;;4880745;29;20184;-75
2021/12/09 17:19:39;;;;;;;13.73;9.63;;;0.00;96.30;;;;;;4881272;29;20185;-75
2021/12/09 17:22:06;;;;;;;11.63;8.83;;;0.00;96.30;;;;;;4879903;29;20433;-75
2021/12/09 17:24:32;;;;;;;13.03;9.90;;;0.00;96.30;;;;;;4879231;29;20304;-75
2021/12/09 17:27:00;;;;;;;13.13;9.77;;;0.00;96.30;;;;;;4879060;29;20422;-75
2021/12/09 17:29:29;;;;;;;14.43;10.80;;;0.00;96.30;;;;;;4891641;29;20435;-75
2021/12/09 17:31:55;;;;;;;18.17;13.03;;;0.00;96.30;;;;;;4899640;29;20416;-75
2021/12/09 17:34:25;;;;;;;17.80;12.40;;;0.00;96.30;;;;;;4881051;29;20483;-76
2021/12/09 17:36:53;;;;;;;19.50;13.70;;;0.00;96.30;;;;;;4861711;29;20213;-75
2021/12/09 17:39:21;;;;;;;16.80;12.00;;;0.10;96.30;;;;;;4861880;29;20446;-76
2021/12/09 17:41:51;;;;;;;14.27;9.90;;;0.10;96.30;;;;;;4862161;29;20415;-75
2021/12/09 17:44:19;;;;;;;15.77;11.27;;;0.10;96.30;;;;;;4861433;29;21017;-75
2021/12/09 17:46:44;;;;;;;15.20;11.60;;;0.10;96.30;;;;;;4862679;29;20423;-75
2021/12/09 17:49:13;;;;;;;16.20;11.20;;;0.10;96.30;;;;;;4860848;29;20431;-75
2021/12/09 17:51:46;;;;;;;19.27;12.90;;;0.10;96.30;;;;;;4862054;29;20202;-75
2021/12/09 17:54:13;;;;;;;18.70;12.87;;;0.10;96.30;;;;;;4862098;29;20462;-75
2021/12/09 17:56:39;;;;;;;17.57;11.90;;;0.10;96.30;;;;;;4861270;29;20449;-75
2021/12/09 17:59:05;;;;;;;20.23;12.43;;;0.10;96.30;;;;;;4861792;29;20936;-75
2021/12/09 18:01:31;;;;;;;18.77;13.13;;;0.10;96.30;;;;;;4860726;29;20186;-75
2021/12/09 18:03:56;;;;;;;18.57;11.20;;;0.10;96.30;;;;;;4861812;29;20295;-75
2021/12/09 18:06:22;;;;;;;18.03;13.13;;;0.10;96.30;;;;;;4861034;29;20575;-75
2021/12/09 18:08:47;;;;;;;19.53;12.47;;;0.10;96.30;;;;;;4861789;29;20175;-75
2021/12/09 18:11:13;;;;;;;20.40;12.57;;;0.20;96.30;;;;;;4860549;29;20562;-75
2021/12/09 18:13:41;;;;;;;21.07;13.40;;;0.20;96.30;;;;;;4861825;29;20643;-78
2021/12/09 18:16:10;;;;;;;21.20;11.83;;;0.20;96.30;;;;;;4861142;29;20631;-76
2021/12/09 18:18:36;;;;;;;17.20;11.57;;;0.10;96.30;;;;;;4861718;29;20423;-75
2021/12/09 18:21:02;;;;;;;17.70;11.80;;;0.20;96.30;;;;;;4861723;29;20490;-74
2021/12/09 18:23:28;;;;;;;19.23;12.93;;;0.20;96.30;;;;;;4860538;29;20483;-75
2021/12/09 18:25:54;;;;;;;18.57;12.50;;;0.20;96.30;;;;;;4859396;29;20467;-74
2021/12/09 18:28:22;;;;;;;18.53;12.33;;;0.20;96.30;;;;;;4872561;29;20421;-75
2021/12/09 18:30:49;;;;;;;26.10;14.50;;;0.20;96.30;;;;;;4870033;29;20784;-75
2021/12/09 18:33:15;;;;;;;24.10;14.40;;;0.20;96.30;;;;;;4879657;29;21147;-74
2021/12/09 18:35:42;;;;;;;22.27;13.67;;;0.20;96.30;;;;;;4870256;29;20922;-74
2021/12/09 18:38:09;;;;;;;20.40;13.17;;;0.20;96.30;;;;;;4866799;29;20419;-74
2021/12/09 18:40:41;;;;;;;21.37;14.10;;;0.20;96.30;;;;;;4875241;29;20429;-74
2021/12/09 18:43:10;;;;;;;17.80;13.20;;;0.20;96.30;;;;;;4876897;29;20434;-76
2021/12/09 18:45:36;;;;;;;23.13;13.40;;;0.20;96.30;;;;;;4868867;29;21309;-75
2021/12/09 18:48:04;;;;;;;20.20;14.07;;;0.20;96.30;;;;;;4863386;29;20497;-75
2021/12/09 18:50:34;;;;;;;18.90;13.83;;;0.20;96.30;;;;;;4879855;29;20403;-75
2021/12/09 18:53:00;;;;;;;28.00;15.70;;;0.20;96.30;;;;;;4864632;29;20490;-75
2021/12/09 18:55:27;;;;;;;26.90;16.57;;;0.20;96.30;;;;;;4879629;29;20455;-75
2021/12/09 18:57:53;;;;;;;22.03;14.50;;;0.30;96.30;;;;;;4876829;29;20449;-75
2021/12/09 19:00:21;;;;;;;27.83;15.37;;;0.30;96.30;;;;;;4879560;29;20907;-75
2021/12/09 19:02:46;;;;;;;27.83;15.70;;;0.30;96.30;;;;;;4879548;29;20425;-75
2021/12/09 19:05:16;;;;;;;23.17;13.73;;;0.30;96.30;;;;;;4878987;29;20474;-75
2021/12/09 19:07:41;;;;;;;28.50;16.03;;;0.30;96.30;;;;;;4865314;29;20226;-75
2021/12/09 19:10:09;;;;;;;18.70;13.77;;;0.30;96.30;;;;;;4859039;29;20521;-75
2021/12/09 19:12:36;;;;;;;20.37;14.33;;;0.30;96.30;;;;;;4861023;29;20193;-75
2021/12/09 19:15:04;;;;;;;24.83;15.83;;;0.30;96.30;;;;;;4861034;29;20818;-75
2021/12/09 19:17:43;;;;;;;20.13;14.13;;;0.30;96.30;;;;;;4864305;29;20911;-75
2021/12/09 19:20:12;;;;;;;20.03;13.70;;;0.30;96.30;;;;;;4872715;29;20414;-79
2021/12/09 19:22:38;;;;;;;23.40;14.77;;;0.30;96.30;;;;;;4863277;29;20426;-74
2021/12/09 19:25:04;;;;;;;25.33;14.20;;;0.40;96.30;;;;;;4860339;29;20549;-76
2021/12/09 19:27:30;;;;;;;25.10;13.70;;;0.40;96.30;;;;;;4859808;29;20983;-76
2021/12/09 19:29:56;;;;;;;19.40;14.17;;;0.40;96.30;;;;;;4890966;29;20428;-76
2021/12/09 19:32:21;;;;;;;24.93;14.10;;;0.30;96.30;;;;;;4897769;29;20421;-76
2021/12/09 19:34:47;;;;;;;25.30;14.33;;;0.40;96.30;;;;;;4897880;29;20224;-76
2021/12/09 19:37:13;;;;;;;22.40;15.47;;;0.40;96.30;;;;;;4897121;29;20181;-76
2021/12/09 19:39:40;;;;;;;17.17;13.03;;;0.40;96.30;;;;;;4897627;29;20177;-76
2021/12/09 19:42:06;;;;;;;26.87;14.00;;;0.40;96.30;;;;;;4897343;29;20201;-76
2021/12/09 19:44:31;;;;;;;19.60;12.90;;;0.30;96.30;;;;;;4897296;29;20501;-76
2021/12/09 19:46:57;;;;;;;24.50;13.90;;;0.40;96.30;;;;;;4896944;29;20216;-76
2021/12/09 19:49:23;;;;;;;20.93;13.50;;;0.40;96.30;;;;;;4897430;29;20177;-76